SMRA80 UAOL 242100
AAXX 24211
81001 41562 50506 10282 20246 40118 70522 82272 333 31/// 56299 57842 59001 82820 85080=
81002 41564 50404 10300 20217 40111 70522 83272 333 30/// 56299 57844 59002 83823=
85116 42465 70000 10314 20244 39906 40083 57024 83904 333 10350 56306 58006 82817 81923 87070=
85139 41458 83606 10294 20255 39902 40099 57011 71522 84907 333 10334 56706 58022 83817 81923 88270=
85284 42584 30112 10164 20045 37048 57012 82240 333 10183 56100 58015 82820=
85332 42570 31705 10166 20007 36580 58005 82332 333 10180 56000 58006 81823 81925=
86170 32970 50504 10324 20197 30017 40117 56013 80006 333 85270=
86185 32970 20000 10310 20236 30017 40109 56005 80001 333 82070=
86221 32970 00000 10300 20193 30016 40148 57014=
86246 32970 01505 10282 20204 39881 40162 56008=
86532 42565 70806 10222 20183 30034 40174 57019 87800 555 10196 20240 30086=
86586 42570 50805 10197 20163 30161 40202 51001 83508 555 10175 20223 30210=
88968 42362 80905 11026 21046 39993 40008 52028 886// 333 56099 83707 88617 91123 91514 92427 92733 92817 95060=
89004 46/// /1129 11220 21289 38810 49878 57002 333 11205 21226 91034 555=
89014 46/// /0605 11164 21303 39256 49889 52006 92100 555 729//=
89611 45/// /3111 11052 21072 39886 49940 50003=



SMUS80 KWBC 242100
AAXX 24214
81200 41460 70507 10268 20236 40116 72522 85953 333 56299 58003 83812 81915 83620 85358 96015=
81202 42470 40509 10282 20233 40117 82942 333 56129 58004 82818 81925=
81225 41465 60604 10275 20236 40114 84963 333 56229 58006 83815 81918 85360=
81405 24573 /1007 10276 20236 30115 40124 700// 333 69907 59004 555 60005=
85041 42570 72204 10320 20236 39822 40082 57027 82908 333 10343 56000 58006 81830 81933 87270=
85043 41458 60000 10318 20244 39935 40095 57017 71582 84904 333 10343 56800 58007 83817 81920 86070=
85104 41458 73204 10282 20249 39949 40110 57015 71722 83904 333 10326 56706 58004 82817 81923 87070 96015=
85109 41458 70906 10310 20251 39950 40108 57018 71722 84908 333 10335 56206 58000 83817 81923 87270 96015=
85114 41458 60000 10281 20244 39948 40111 55006 71722 83904 333 10336 56706 58010 82817 81923 86070 96015=
85123 42465 72404 10283 20239 39940 40104 55010 84903 333 10326 56706 58027 83817 81923 87070=
85140 42570 63203 10286 20243 39874 40081 57011 83903 333 10326 56706 58024 82820 81925 86070=
85141 42470 70000 10290 20246 39842 40074 57011 82304 333 10330 56707 58015 82817 81920 87070=
85152 41558 70000 10262 20249 39866 40096 57004 71596 85570 333 10330 56330 58026 82820 83627 85358=
85153 41330 80000 10244 20244 39928 40113 55006 79592 8692/ 333 10322 56779 58036 85608 81920 88457=
85154 42470 81704 10260 20232 39936 40114 55006 82937 333 10330 56777 58027 81817 81920 83358 88270=
85175 42580 80000 10255 20234 39853 40145 53002 84207 333 10320 56309 58033 84820 88270=
85195 42570 60000 10242 20213 39520 40120 57004 86900 333 10309 56800 58020 85820 81923=
85196 42480 70000 10290 20250 39563 40147 55009 84904 333 10310 56700 58020 83817 81930 87070=
85201 41465 61010 10120 20028 36305 56009 71521 84963 333 10142 56000 58001 83817 81920 86070=
85207 42480 20000 10313 20241 39650 40124 57015 82200 333 10315 56700 58010 82817=
85210 42970 00000 10310 20243 30000 40110 57012 333 10342 58014=
85223 41563 32504 10234 20079 37509 47153 57019 70411 82231 333 10250 56010 58020 82830=
85244 41570 79902 10235 20227 39703 40134 56010 70269 82920 333 10316 56890 58030 81820 81930 87457=
85245 41463 69902 10261 20209 39643 40120 56011 70296 84963 333 10305 56999 58028 82817 83623 81930 86357=
85247 42570 80000 10340 20177 39818 40151 56014 81107 333 10366 56709 58010 81820 88270=
85264 42570 60000 10202 20143 38053 55003 83206 333 10226 56809 58018 83820 86070=
85268 42970 00000 10324 20238 39820 40151 57020 333 10353 58012=
85289 42980 00000 10315 20225 39956 40110 56014 333 10330 58006=
85312 42570 31305 10256 20187 38909 55003 82963 333 10290 56077 58029 81625 81927=
85315 42584 40000 10287 20207 39232 40111 57010 84800 333 10306 56800 58024 84833=
85364 41570 40000 10225 20129 38152 48219 57018 70292 82963 333 10257 56007 58011 81833 81940 83070=
85365 42970 50406 10270 20235 39381 40101 57021 80001 333 10284 56000 58016 85070=
86068 31968 50202 10328 20215 39941 40112 57008 70422 85070=
86086 32970 60902 10320 20199 30026 40114 57008 80004 333 86070=
86097 32970 00805 10290 20158 39515 40146 57008=
86134 32970 10503 10326 20197 30049 40133 56009 80001 333 81070=
86192 32870 30000 10332 20193 39935 40149 54000 83070 333 83357=
86210 32970 00906 10294 20175 39804 40140 57005=
86218 32970 10000 10312 20201 30053 40147 56008 80001 333 81070=
86233 32870 60000 10286 20232 39956 40143 56010 86070 333 86358=
86234 32770 41403 10276 20223 39971 40153 56011 84036 333 84460 84370=
86255 32770 61805 10262 20200 30071 40138 57010 86030 333 86370=
86260 32570 60000 10312 20201 39995 40143 56005 86500 333 86627=
86268 32570 40000 10306 20188 39980 40139 57023 84200 333 84840=
86297 32970 50000 10298 20185 39924 40152 57010 80007 333 85270=
86350 42570 71004 10240 20194 39905 40181 53001 82478 555 10208 20244 39959=
86430 42460 60508 10239 20194 30104 40176 56008 84806 555 10208 20220 30154=
86440 42470 61005 10220 20200 40183 57005 84406 555 10206=
86490 41465 71106 10220 20194 30151 40172 57009 70151 87800 555 10202 20230 30202=
86530 42562 50708 10230 20189 30066 40174 57010 82575 555 10202 20230 30116=
86545 42960 60907 10234 20177 30103 40182 5/008 86070 555 10196 20226 30153=
86560 41459 81307 10214 20193 30144 40167 53006 75022 84570 555 10200 20235 30195=
86565 42465 30000 10198 20167 30170 40193 56004 81405 555 10178 20228 30220=
86575 42965 31210 10204 20159 30132 40192 58010 80001 555 10175 20228 30182=
86580 42965 41113 10204 20177 30153 40193 57007 81056 555 10186 20240 30205=
86585 42960 20614 10206 20174 30166 40186 58010 81035 555 10185 20231 30216=
89034 42770 81611 11123 21160 39554 49881 53005 8807/ 333 56039 88556 92841=
89055 41109 81810 11155 21173 39760 40018 58003 77177 886// 333 56499 88703 90552 90633 92739 92800 95190 96042=
89504 46/// /0702 11185 21344 38352 49883 53002=
89532 42/70 71015 11096 21157 39857 49885 56006 82572=
89564 45/// /1329 11120 21212 39918 49939 50003 6///0=
89571 43/// /1805 11055 21135 39878 49908 51012 6///3=